Portada
METAR-TAF:

METAR-TAF

Aeroports :

In Aménas, Algèria

latitud: 28-03N, longitud: 009-38E, altitud: 562 m

Observació

L'informe es va fer fa 41 minuts, a les 21:00 UTC
Vent 11 kt del Est/Nord-Est
Temperatura 26°C
Humitat 20%
Pressió 1015 hPa
Visibilitat: 4000 m
calitja

METAR: DAUZ 222100Z 07011KT 4000 HZ NSC 26/01 Q1015

Hora: 22:41 (21:41 UTC)

Pronòstic

L'informe es va fer fa 4 hores i 41 minuts, a les 17:00 UTC
Pronòstic vàlid del 22 a les 18 UTC al 23 a les 18 UTC
Vent 10 kt del Est
Visibilitat: 4000 m
calitja
Evolucionant progressivament
l' 22 a les 19 UTC al 22 a les 22 UTC
Visibilitat: 6000 m
Probabilitat 40% :
Temporalment
l' 23 a les 07 UTC al 23 a les 11 UTC
Vent 22 kt del Est
Visibilitat: 3000 m
torb baixa de sorra

TAF: DAUZ 221700Z 2218/2318 08010KT 4000 HZ NSC BECMG 2219/2222 6000 NSW PROB40 TEMPO 2307/2311 10022KT 3000 DRSA

Observacions i pronòstics meteorològics de més de 4000 aeroports (METAR i TAF).

Les estacions disponibles són els punts grocs i vermells al mapa.

Posi el ratolí al punt desitjat per veure el nom de l'estació.

Feu clic per veure les observacions i els pronòstics meteorològics.

Per canviar el mapa: feu clic els botons verds amb una creu de color negre per apropar; al botó verd amb un guió per allunyar la imatge; o en les fletxes verdes per a mapes adjacents.


METAR-TAF: